Time;durP1;ratioP1;P1;durP2;ratioP2;P2;SDS_P1;SDS_P2;PMS_P1;PMS_P2;Temp;Humidity;BMP_temperature;BMP_pressure;BME280_temperature;BME280_humidity;BME280_pressure;Samples;Min_cycle;Max_cycle;Signal;HPM_P1;HPM_P2
2022/05/18 00:01:17;;;;;;;1.80;0.90;;;7.30;99.90;;;;;;5013205;28;20913;-85
2022/05/18 00:03:45;;;;;;;1.70;0.85;;;7.20;99.90;;;;;;5039761;28;20488;-86
2022/05/18 00:06:14;;;;;;;1.58;0.90;;;7.20;99.90;;;;;;5011352;28;20417;-85
2022/05/18 00:08:42;;;;;;;1.10;0.80;;;7.20;99.90;;;;;;5037143;28;20435;-86
2022/05/18 00:11:16;;;;;;;1.13;0.80;;;7.10;99.90;;;;;;5010605;28;20474;-85
2022/05/18 00:13:46;;;;;;;1.33;0.70;;;7.20;99.90;;;;;;5004943;28;20771;-86
2022/05/18 00:16:15;;;;;;;1.90;0.90;;;7.20;99.90;;;;;;5008545;28;20503;-86
2022/05/18 00:18:44;;;;;;;0.93;0.80;;;7.20;99.90;;;;;;5009816;28;20881;-85
2022/05/18 00:21:12;;;;;;;1.42;0.80;;;7.20;99.90;;;;;;5018709;28;20429;-87
2022/05/18 00:23:40;;;;;;;1.42;0.70;;;7.20;99.90;;;;;;5009526;28;20919;-86
2022/05/18 00:26:08;;;;;;;1.73;0.82;;;7.20;99.90;;;;;;5021398;28;20497;-85
2022/05/18 00:28:36;;;;;;;1.17;0.70;;;7.20;99.90;;;;;;5002698;28;20482;-86
2022/05/18 00:31:03;;;;;;;0.70;0.65;;;7.10;99.90;;;;;;5009685;28;20492;-86
2022/05/18 00:33:31;;;;;;;1.67;0.82;;;7.10;99.90;;;;;;5015382;28;20402;-85
2022/05/18 00:35:59;;;;;;;2.00;0.77;;;7.10;99.90;;;;;;5007362;28;20562;-85
2022/05/18 00:38:28;;;;;;;0.93;0.73;;;7.10;99.90;;;;;;5009891;28;20397;-86
2022/05/18 00:40:56;;;;;;;1.52;0.75;;;7.20;99.90;;;;;;5004134;28;20473;-86
2022/05/18 00:43:30;;;;;;;1.10;0.80;;;7.10;99.90;;;;;;5017249;28;20397;-87
2022/05/18 00:45:59;;;;;;;2.20;0.70;;;7.10;99.90;;;;;;5014070;28;20410;-85
2022/05/18 00:48:27;;;;;;;0.90;0.70;;;7.20;99.90;;;;;;4989695;28;20448;-86
2022/05/18 00:50:58;;;;;;;1.30;0.80;;;7.20;99.90;;;;;;5024723;28;20413;-86
2022/05/18 00:53:31;;;;;;;0.93;0.65;;;7.10;99.90;;;;;;5022741;28;20394;-85
2022/05/18 00:56:05;;;;;;;1.23;0.70;;;7.20;99.90;;;;;;5006533;28;20397;-86
2022/05/18 00:58:59;;;;;;;1.10;0.65;;;7.20;99.90;;;;;;5008814;28;21011;-85
2022/05/18 01:01:29;;;;;;;1.73;0.70;;;7.30;99.90;;;;;;5014856;28;20515;-85
2022/05/18 01:03:59;;;;;;;1.83;0.70;;;7.20;99.90;;;;;;4992499;28;20415;-86
2022/05/18 01:06:35;;;;;;;1.05;0.70;;;7.20;99.90;;;;;;5041256;28;20427;-86
2022/05/18 01:09:11;;;;;;;1.40;0.70;;;7.20;99.90;;;;;;5045850;28;20398;-85
2022/05/18 01:11:39;;;;;;;1.40;0.70;;;7.20;99.90;;;;;;5002419;28;20486;-86
2022/05/18 01:14:25;;;;;;;1.10;0.60;;;7.20;99.90;;;;;;5022942;28;20413;-85
2022/05/18 01:16:54;;;;;;;3.40;0.80;;;7.10;99.90;;;;;;5014704;28;20462;-85
2022/05/18 01:19:35;;;;;;;1.75;0.70;;;7.10;99.90;;;;;;5029427;28;20413;-85
2022/05/18 01:22:40;;;;;;;0.77;0.65;;;7.10;99.90;;;;;;4995257;28;20412;-86
2022/05/18 01:25:13;;;;;;;1.20;0.70;;;7.00;99.90;;;;;;5028665;28;20422;-85
2022/05/18 01:27:41;;;;;;;1.00;0.80;;;7.00;99.90;;;;;;5001762;28;20484;-85
2022/05/18 01:30:10;;;;;;;1.05;0.80;;;7.10;99.90;;;;;;5007780;28;20488;-86
2022/05/18 01:32:41;;;;;;;2.00;0.70;;;7.10;99.90;;;;;;5017467;28;20942;-85
2022/05/18 01:35:11;;;;;;;1.55;0.77;;;7.20;99.90;;;;;;5008632;28;20898;-86
2022/05/18 01:37:40;;;;;;;1.10;0.80;;;7.20;99.90;;;;;;5005560;28;20389;-85
2022/05/18 01:40:23;;;;;;;1.40;0.80;;;7.20;99.90;;;;;;5013566;28;20476;-86
2022/05/18 01:43:15;;;;;;;2.50;0.90;;;7.20;99.90;;;;;;5003099;28;20450;-84
2022/05/18 01:45:43;;;;;;;1.60;0.70;;;7.20;99.90;;;;;;5000509;28;20431;-85
2022/05/18 01:48:14;;;;;;;1.45;0.70;;;7.20;99.90;;;;;;5010812;28;20393;-85
2022/05/18 01:50:44;;;;;;;1.60;0.75;;;7.20;99.90;;;;;;5017717;28;20778;-85
2022/05/18 01:53:11;;;;;;;1.33;0.60;;;7.20;99.90;;;;;;5016711;28;20587;-85
2022/05/18 01:55:39;;;;;;;2.20;0.70;;;7.20;99.90;;;;;;5028623;28;20405;-86
2022/05/18 01:58:09;;;;;;;2.95;0.77;;;7.20;99.90;;;;;;5007999;28;20401;-84
2022/05/18 02:00:37;;;;;;;1.10;0.80;;;7.20;99.90;;;;;;4995914;28;20393;-86
2022/05/18 02:03:06;;;;;;;1.75;0.70;;;7.20;99.90;;;;;;5008480;28;20413;-85
2022/05/18 02:05:34;;;;;;;1.40;0.82;;;7.20;99.90;;;;;;5013605;28;20498;-86
2022/05/18 02:08:02;;;;;;;1.53;0.70;;;7.20;99.90;;;;;;5014826;28;20401;-85
2022/05/18 02:10:30;;;;;;;2.47;1.00;;;7.10;99.90;;;;;;5021592;28;20407;-86
2022/05/18 02:12:58;;;;;;;2.35;0.70;;;7.10;99.90;;;;;;5003947;28;20794;-85
2022/05/18 02:15:27;;;;;;;0.75;0.63;;;7.10;99.90;;;;;;5006197;28;20394;-85
2022/05/18 02:17:55;;;;;;;1.45;0.70;;;7.10;99.90;;;;;;5036102;28;20393;-85
2022/05/18 02:20:23;;;;;;;1.87;0.70;;;7.00;99.90;;;;;;5011967;28;20426;-86
2022/05/18 02:22:51;;;;;;;2.25;0.85;;;7.10;99.90;;;;;;5038341;28;20408;-86
2022/05/18 02:25:20;;;;;;;1.10;0.60;;;7.10;99.90;;;;;;5030756;28;20913;-85
2022/05/18 02:27:50;;;;;;;0.70;0.70;;;7.10;99.90;;;;;;5013898;28;20466;-85
2022/05/18 02:30:18;;;;;;;2.55;1.00;;;7.10;99.90;;;;;;5009671;28;20489;-86
2022/05/18 02:32:46;;;;;;;2.05;0.90;;;7.00;99.90;;;;;;5018946;28;20838;-86
2022/05/18 02:35:14;;;;;;;0.95;0.70;;;7.00;99.90;;;;;;5020683;28;20940;-86
2022/05/18 02:37:42;;;;;;;3.63;1.10;;;7.10;99.90;;;;;;5012373;28;20476;-86
2022/05/18 02:40:11;;;;;;;0.90;0.70;;;7.10;99.90;;;;;;5017870;28;20403;-86
2022/05/18 02:42:39;;;;;;;2.20;0.70;;;7.10;99.90;;;;;;5017679;28;21004;-85
2022/05/18 02:45:08;;;;;;;1.40;0.80;;;7.00;99.90;;;;;;5045525;28;20413;-86
2022/05/18 02:47:36;;;;;;;1.45;0.80;;;7.00;99.90;;;;;;5017191;28;20735;-86
2022/05/18 02:50:05;;;;;;;0.90;0.63;;;7.00;99.90;;;;;;5049075;28;20431;-86
2022/05/18 02:52:34;;;;;;;1.40;0.70;;;7.00;99.90;;;;;;4984571;28;20497;-86
2022/05/18 02:57:51;;;;;;;2.10;0.75;;;7.00;99.90;;;;;;5014099;28;20431;-86
2022/05/18 03:00:19;;;;;;;1.20;0.80;;;7.00;99.90;;;;;;5009225;28;20451;-86
2022/05/18 03:02:47;;;;;;;1.02;0.60;;;7.10;99.90;;;;;;5017217;28;20429;-87
2022/05/18 03:05:15;;;;;;;2.03;0.60;;;7.10;99.90;;;;;;5009751;28;20395;-86
2022/05/18 03:07:43;;;;;;;1.27;0.70;;;7.00;99.90;;;;;;5016087;28;20414;-86
2022/05/18 03:10:15;;;;;;;1.63;0.70;;;7.00;99.90;;;;;;5011817;28;20412;-86
2022/05/18 03:12:44;;;;;;;1.95;0.77;;;7.10;99.90;;;;;;5015061;28;20455;-85
2022/05/18 03:15:13;;;;;;;1.57;0.90;;;7.10;99.90;;;;;;5012709;28;20456;-86
2022/05/18 03:17:41;;;;;;;1.55;0.80;;;7.10;99.90;;;;;;5017602;28;20408;-86
2022/05/18 03:23:33;;;;;;;2.50;0.77;;;7.10;99.90;;;;;;5013359;28;20914;-86
2022/05/18 03:25:43;;;;;;;2.08;0.70;;;7.10;99.90;;;;;;5047848;28;20490;-86
2022/05/18 03:28:14;;;;;;;1.20;0.80;;;7.10;99.90;;;;;;5015288;28;20896;-85
2022/05/18 03:30:42;;;;;;;1.67;0.73;;;7.00;99.90;;;;;;5033422;28;20483;-84
2022/05/18 03:33:09;;;;;;;1.65;0.80;;;7.00;99.90;;;;;;4996757;28;20926;-86
2022/05/18 03:35:37;;;;;;;1.80;0.90;;;7.00;99.90;;;;;;5017722;28;20410;-85
2022/05/18 03:38:05;;;;;;;1.50;0.70;;;7.10;99.90;;;;;;5015414;28;20800;-86
2022/05/18 03:40:36;;;;;;;1.52;0.90;;;7.10;99.90;;;;;;5019411;28;20481;-87
2022/05/18 03:43:05;;;;;;;3.08;0.90;;;7.10;99.90;;;;;;5020573;28;20752;-86
2022/05/18 03:45:35;;;;;;;2.78;1.10;;;7.10;99.90;;;;;;5022043;28;20403;-86
2022/05/18 03:48:05;;;;;;;1.92;0.80;;;7.20;99.90;;;;;;5020465;28;20401;-86
2022/05/18 03:50:33;;;;;;;1.90;0.60;;;7.20;99.90;;;;;;5011136;28;20416;-85
2022/05/18 03:53:02;;;;;;;1.00;0.70;;;7.20;99.90;;;;;;5022623;28;20417;-85
2022/05/18 03:55:30;;;;;;;1.80;0.80;;;7.10;99.90;;;;;;5019657;28;20770;-86
2022/05/18 03:57:58;;;;;;;1.97;0.70;;;7.10;99.90;;;;;;5015073;28;20405;-86
2022/05/18 04:00:26;;;;;;;2.10;1.00;;;7.10;99.90;;;;;;5049453;28;20394;-86
2022/05/18 04:02:54;;;;;;;1.58;0.77;;;7.10;99.90;;;;;;5017532;28;20409;-85
2022/05/18 04:05:22;;;;;;;1.83;0.90;;;7.10;99.90;;;;;;5001093;28;20414;-86
2022/05/18 04:07:51;;;;;;;1.45;1.00;;;7.10;99.90;;;;;;5013304;28;20397;-85
2022/05/18 04:10:19;;;;;;;1.38;0.80;;;7.10;99.90;;;;;;5017075;28;20464;-86
2022/05/18 04:12:47;;;;;;;1.65;0.70;;;7.10;99.90;;;;;;5019401;28;20414;-85
2022/05/18 04:15:18;;;;;;;1.77;0.80;;;7.10;99.90;;;;;;5022288;28;20399;-86
2022/05/18 04:17:48;;;;;;;1.75;0.80;;;7.10;99.90;;;;;;5011628;28;20393;-84
2022/05/18 04:20:19;;;;;;;4.28;0.88;;;7.10;99.90;;;;;;5015454;28;20396;-85
2022/05/18 04:22:48;;;;;;;2.35;1.10;;;7.10;99.90;;;;;;5016639;28;20410;-84
2022/05/18 04:25:21;;;;;;;2.30;1.00;;;7.10;99.90;;;;;;5012675;28;20411;-84
2022/05/18 04:27:50;;;;;;;1.45;0.90;;;7.20;99.90;;;;;;5017498;28;20485;-86
2022/05/18 04:30:19;;;;;;;2.35;0.90;;;7.20;99.90;;;;;;5011725;28;20399;-85
2022/05/18 04:32:47;;;;;;;1.85;0.80;;;7.20;99.90;;;;;;5019110;28;20492;-85
2022/05/18 04:35:17;;;;;;;1.40;1.00;;;7.20;99.90;;;;;;5010270;28;20390;-84
2022/05/18 04:37:45;;;;;;;1.90;0.90;;;7.20;99.90;;;;;;5016909;28;20435;-84
2022/05/18 04:40:14;;;;;;;1.80;0.80;;;7.20;99.90;;;;;;5010858;28;20398;-85
2022/05/18 04:42:42;;;;;;;1.35;0.70;;;7.20;99.90;;;;;;5017419;28;20401;-84
2022/05/18 04:45:13;;;;;;;1.95;0.90;;;7.30;99.90;;;;;;5020063;28;20409;-85
2022/05/18 04:47:41;;;;;;;1.35;0.88;;;7.30;99.90;;;;;;5005206;28;20412;-84
2022/05/18 04:50:10;;;;;;;1.30;0.90;;;7.30;99.90;;;;;;5021803;28;20404;-85
2022/05/18 04:52:38;;;;;;;1.88;0.90;;;7.30;99.90;;;;;;5022391;28;20411;-84
2022/05/18 04:55:06;;;;;;;1.92;0.90;;;7.30;99.90;;;;;;5009481;28;20468;-85
2022/05/18 04:57:35;;;;;;;1.50;0.70;;;7.40;99.90;;;;;;5019654;28;20879;-85
2022/05/18 05:00:06;;;;;;;1.98;0.80;;;7.40;99.90;;;;;;5008443;28;20404;-85
2022/05/18 05:02:36;;;;;;;1.90;0.80;;;7.40;99.90;;;;;;5015965;28;20785;-85
2022/05/18 05:05:09;;;;;;;2.70;0.80;;;7.40;99.90;;;;;;5013888;28;20410;-85
2022/05/18 05:07:37;;;;;;;1.20;0.80;;;7.40;99.90;;;;;;5017574;28;20783;-85
2022/05/18 05:10:07;;;;;;;1.55;0.70;;;7.40;99.90;;;;;;5010637;28;20404;-85
2022/05/18 05:12:42;;;;;;;1.30;0.60;;;7.50;99.90;;;;;;5007375;28;20411;-84
2022/05/18 05:15:11;;;;;;;1.63;0.70;;;7.50;99.90;;;;;;5015237;28;20402;-85
2022/05/18 05:17:38;;;;;;;2.00;0.63;;;7.50;99.90;;;;;;5015244;28;20485;-85
2022/05/18 05:20:08;;;;;;;0.85;0.70;;;7.60;99.90;;;;;;5009179;28;20398;-85
2022/05/18 05:22:36;;;;;;;2.28;0.80;;;7.70;99.90;;;;;;5015313;28;20405;-85
2022/05/18 05:25:04;;;;;;;2.20;0.85;;;7.70;99.90;;;;;;5011043;28;20506;-85
2022/05/18 05:27:31;;;;;;;1.45;0.60;;;7.70;99.90;;;;;;5005898;28;20661;-85
2022/05/18 05:29:59;;;;;;;1.75;0.90;;;7.80;99.90;;;;;;5015111;28;20404;-85
2022/05/18 05:32:27;;;;;;;1.15;0.70;;;7.80;99.90;;;;;;5018848;28;20427;-85
2022/05/18 05:34:55;;;;;;;1.98;0.60;;;7.80;99.90;;;;;;5011278;28;20422;-86
2022/05/18 05:37:23;;;;;;;1.27;0.70;;;7.80;99.90;;;;;;5017146;28;20403;-85
2022/05/18 05:39:50;;;;;;;1.35;0.70;;;7.80;99.90;;;;;;5011510;28;20400;-87
2022/05/18 05:42:18;;;;;;;1.08;0.68;;;7.80;99.90;;;;;;5022345;28;20435;-86
2022/05/18 05:44:45;;;;;;;2.63;0.70;;;8.00;99.90;;;;;;5015847;28;20442;-87
2022/05/18 05:47:13;;;;;;;1.35;0.75;;;8.00;99.90;;;;;;5011157;28;20393;-86
2022/05/18 05:49:42;;;;;;;1.77;0.70;;;8.00;99.90;;;;;;5013738;28;20389;-85
2022/05/18 05:52:11;;;;;;;1.48;0.68;;;8.10;99.90;;;;;;5014999;28;20510;-85
2022/05/18 05:54:39;;;;;;;1.58;0.82;;;8.10;99.90;;;;;;5012105;28;20454;-85
2022/05/18 05:57:08;;;;;;;2.40;0.63;;;8.20;99.90;;;;;;5015386;28;20448;-86
2022/05/18 05:59:36;;;;;;;1.83;0.80;;;8.20;99.90;;;;;;5024850;28;20982;-86
2022/05/18 06:02:08;;;;;;;1.23;0.60;;;8.20;99.90;;;;;;5045591;28;20911;-85
2022/05/18 06:04:37;;;;;;;2.05;0.70;;;8.20;99.90;;;;;;5019900;28;20406;-86
2022/05/18 06:07:04;;;;;;;1.73;0.90;;;8.30;99.90;;;;;;5017040;28;20891;-85
2022/05/18 06:09:33;;;;;;;1.90;0.80;;;8.40;99.90;;;;;;5006743;28;20893;-87
2022/05/18 06:12:00;;;;;;;1.38;0.70;;;8.50;99.90;;;;;;5018051;28;20498;-86
2022/05/18 06:14:28;;;;;;;1.85;0.70;;;8.70;99.90;;;;;;5017526;28;20821;-86
2022/05/18 06:16:56;;;;;;;2.17;0.90;;;8.80;99.90;;;;;;5011847;28;20392;-85
2022/05/18 06:19:24;;;;;;;2.63;0.80;;;8.70;99.90;;;;;;5014949;28;20388;-86
2022/05/18 06:21:51;;;;;;;1.40;0.80;;;8.80;99.90;;;;;;5017030;28;20421;-86
2022/05/18 06:24:19;;;;;;;1.45;0.70;;;8.90;99.90;;;;;;5011370;28;20759;-87
2022/05/18 06:26:47;;;;;;;1.63;0.60;;;8.90;99.90;;;;;;5020292;28;20884;-85
2022/05/18 06:29:15;;;;;;;1.35;0.70;;;9.00;99.90;;;;;;5005953;28;20484;-86
2022/05/18 06:31:42;;;;;;;2.08;0.77;;;9.00;99.90;;;;;;5009745;28;20463;-86
2022/05/18 06:34:10;;;;;;;2.58;0.80;;;9.10;99.90;;;;;;5021172;28;20664;-86
2022/05/18 06:36:38;;;;;;;2.67;0.90;;;9.20;99.90;;;;;;5016470;28;20890;-86
2022/05/18 06:39:05;;;;;;;0.93;0.63;;;9.10;99.90;;;;;;5012170;28;20855;-86
2022/05/18 06:41:35;;;;;;;2.07;0.80;;;9.10;99.90;;;;;;5016068;28;20445;-85
2022/05/18 06:44:05;;;;;;;1.13;0.70;;;9.00;99.90;;;;;;4999963;28;20550;-86
2022/05/18 06:46:35;;;;;;;2.40;0.80;;;9.00;99.90;;;;;;5012976;28;20442;-86
2022/05/18 06:49:05;;;;;;;3.23;0.80;;;9.00;99.90;;;;;;5013021;28;20414;-86
2022/05/18 06:51:35;;;;;;;1.92;0.63;;;9.00;99.90;;;;;;5019536;28;20461;-85
2022/05/18 06:54:04;;;;;;;3.08;0.88;;;9.10;99.90;;;;;;5009713;28;20447;-86
2022/05/18 06:56:35;;;;;;;3.30;0.90;;;9.20;99.90;;;;;;5005988;28;20398;-86
2022/05/18 06:59:04;;;;;;;2.33;0.90;;;9.20;99.90;;;;;;5011346;28;20488;-84
2022/05/18 07:01:32;;;;;;;1.70;0.70;;;9.40;99.90;;;;;;5010897;28;20486;-86
2022/05/18 07:04:03;;;;;;;1.70;0.77;;;9.30;99.90;;;;;;5017802;28;20469;-85
2022/05/18 07:06:34;;;;;;;4.50;0.90;;;9.40;99.90;;;;;;5019093;28;20440;-86
2022/05/18 07:09:05;;;;;;;2.33;0.82;;;9.40;99.90;;;;;;5021006;28;20409;-86
2022/05/18 07:11:41;;;;;;;3.45;0.85;;;9.50;99.90;;;;;;5033868;28;20497;-86
2022/05/18 07:14:09;;;;;;;1.75;0.75;;;9.50;99.90;;;;;;5011153;28;20449;-85
2022/05/18 07:16:36;;;;;;;1.52;0.73;;;9.50;99.90;;;;;;5016768;28;20446;-85
2022/05/18 07:19:04;;;;;;;2.25;0.75;;;9.60;99.90;;;;;;5020591;28;20413;-86
2022/05/18 07:21:32;;;;;;;0.85;0.70;;;9.50;99.90;;;;;;5010440;28;20403;-86
2022/05/18 07:24:00;;;;;;;2.10;0.70;;;9.60;99.90;;;;;;5018187;28;20844;-86
2022/05/18 07:26:29;;;;;;;3.40;0.63;;;9.60;99.90;;;;;;5020730;28;20407;-87
2022/05/18 07:28:57;;;;;;;2.67;0.80;;;9.70;99.90;;;;;;5011628;28;20454;-87
2022/05/18 07:31:26;;;;;;;2.72;1.00;;;9.80;99.90;;;;;;4989322;28;20437;-83
2022/05/18 07:34:15;;;;;;;1.00;0.80;;;9.80;99.90;;;;;;5015901;28;20402;-86
2022/05/18 07:36:42;;;;;;;1.98;0.70;;;9.80;99.90;;;;;;5016361;28;20476;-85
2022/05/18 07:39:11;;;;;;;1.77;0.70;;;10.00;99.90;;;;;;5016740;28;20390;-85
2022/05/18 07:41:40;;;;;;;2.67;0.80;;;10.00;99.90;;;;;;5018512;28;20871;-86
2022/05/18 07:44:08;;;;;;;1.10;0.80;;;10.10;99.90;;;;;;5022592;28;20413;-86
2022/05/18 07:46:36;;;;;;;1.52;0.70;;;10.30;99.90;;;;;;5017463;28;20447;-86
2022/05/18 07:49:05;;;;;;;1.55;0.70;;;10.20;99.90;;;;;;5011509;28;20398;-86
2022/05/18 07:51:33;;;;;;;1.45;0.70;;;10.30;99.90;;;;;;5011628;28;20858;-86
2022/05/18 07:54:00;;;;;;;2.28;0.80;;;10.40;99.90;;;;;;5039458;28;20418;-86
2022/05/18 07:56:28;;;;;;;2.37;0.83;;;10.40;99.90;;;;;;5014655;28;20494;-86
2022/05/18 07:58:56;;;;;;;3.25;0.70;;;10.50;99.90;;;;;;5046950;28;20394;-86
2022/05/18 08:01:23;;;;;;;2.08;0.70;;;10.40;99.90;;;;;;5013754;28;20395;-86
2022/05/18 08:03:52;;;;;;;2.15;0.70;;;10.40;99.90;;;;;;5013266;28;20465;-85
2022/05/18 08:06:20;;;;;;;1.83;0.83;;;10.50;99.90;;;;;;5007060;28;20410;-86
2022/05/18 08:08:48;;;;;;;2.17;0.90;;;10.60;99.90;;;;;;5009484;28;20445;-87
2022/05/18 08:16:48;;;;;;;1.63;0.82;;;10.80;99.90;;;;;;5019069;28;20434;-87
2022/05/18 08:19:16;;;;;;;2.10;0.80;;;10.90;99.90;;;;;;5014599;28;20405;-86
2022/05/18 08:21:47;;;;;;;2.28;0.80;;;11.00;99.90;;;;;;5047659;28;20536;-87
2022/05/18 08:24:15;;;;;;;1.25;0.82;;;11.00;99.90;;;;;;5023293;28;20412;-86
2022/05/18 08:26:42;;;;;;;2.65;0.80;;;11.10;99.90;;;;;;5012765;28;20445;-87
2022/05/18 08:29:10;;;;;;;1.15;0.70;;;11.10;99.90;;;;;;5014659;28;20410;-86
2022/05/18 08:31:38;;;;;;;3.40;0.80;;;11.10;99.90;;;;;;5022575;28;20490;-86
2022/05/18 08:34:06;;;;;;;3.22;0.80;;;11.10;99.90;;;;;;5011184;28;20413;-86
2022/05/18 08:36:33;;;;;;;1.00;0.82;;;11.20;99.90;;;;;;5003208;28;20484;-87
2022/05/18 08:39:02;;;;;;;1.25;0.80;;;11.40;99.90;;;;;;5015829;28;20447;-87
2022/05/18 08:41:37;;;;;;;2.90;0.90;;;11.40;99.90;;;;;;5010080;28;20405;-86
2022/05/18 08:44:07;;;;;;;4.03;0.80;;;11.20;99.90;;;;;;5015826;28;20878;-86
2022/05/18 08:47:08;;;;;;;1.20;0.70;;;11.30;99.90;;;;;;5019722;28;20413;-86
2022/05/18 08:49:51;;;;;;;2.50;0.90;;;11.30;99.90;;;;;;5009445;28;20412;-86
2022/05/18 08:52:50;;;;;;;1.27;0.80;;;11.30;99.90;;;;;;5014786;28;20486;-86
2022/05/18 08:55:18;;;;;;;2.53;0.93;;;11.40;99.90;;;;;;5008732;28;20401;-87
2022/05/18 08:57:48;;;;;;;6.90;1.10;;;11.50;99.90;;;;;;5010969;28;20444;-86
2022/05/18 09:00:26;;;;;;;2.50;0.80;;;11.50;99.90;;;;;;5018358;28;20395;-87
2022/05/18 09:03:16;;;;;;;2.83;1.00;;;11.60;99.90;;;;;;5023130;28;20454;-87
2022/05/18 09:05:50;;;;;;;2.20;1.00;;;11.60;99.90;;;;;;5022197;28;20735;-87
2022/05/18 09:08:23;;;;;;;2.75;1.00;;;11.60;99.90;;;;;;5027372;28;20812;-87
2022/05/18 09:10:53;;;;;;;2.70;1.40;;;11.60;99.90;;;;;;5020893;28;20398;-87
2022/05/18 09:13:23;;;;;;;1.98;1.10;;;11.70;99.90;;;;;;5018077;28;20418;-87
2022/05/18 09:16:11;;;;;;;1.27;0.98;;;11.70;99.90;;;;;;5013999;28;20438;-87
2022/05/18 09:19:05;;;;;;;2.60;1.00;;;11.80;99.90;;;;;;5006906;28;20424;-87
2022/05/18 09:21:49;;;;;;;1.75;0.90;;;11.80;99.90;;;;;;5013269;28;20392;-86
2022/05/18 09:24:53;;;;;;;1.50;0.90;;;11.90;99.90;;;;;;4996859;28;20417;-87
2022/05/18 09:27:36;;;;;;;4.43;1.02;;;11.90;99.90;;;;;;5011006;28;20429;-87
2022/05/18 09:30:33;;;;;;;1.42;0.82;;;11.90;99.90;;;;;;5020330;28;20790;-87
2022/05/18 09:33:33;;;;;;;2.33;0.77;;;11.80;99.90;;;;;;5028556;28;20414;-86
2022/05/18 09:36:19;;;;;;;1.80;0.80;;;12.00;99.90;;;;;;5031281;28;20413;-87
2022/05/18 09:39:09;;;;;;;2.20;0.70;;;12.20;99.90;;;;;;5011348;28;20419;-86
2022/05/18 09:41:51;;;;;;;2.90;0.98;;;12.30;99.90;;;;;;5004215;28;20512;-88
2022/05/18 09:44:35;;;;;;;3.45;0.80;;;12.40;99.90;;;;;;5015218;28;20761;-87
2022/05/18 09:47:04;;;;;;;12.98;1.90;;;12.40;99.90;;;;;;5012314;28;20447;-88
2022/05/18 09:49:59;;;;;;;3.08;0.80;;;12.50;99.90;;;;;;5015811;28;20456;-89
2022/05/18 09:52:29;;;;;;;3.72;1.00;;;12.40;99.90;;;;;;5013174;28;20756;-87
2022/05/18 09:54:59;;;;;;;2.33;0.80;;;12.60;99.90;;;;;;5015602;28;20405;-88
2022/05/18 09:57:46;;;;;;;2.20;0.90;;;12.50;99.90;;;;;;5021382;28;20895;-87
2022/05/18 10:00:18;;;;;;;4.53;1.20;;;12.50;99.90;;;;;;5016609;28;20405;-87
2022/05/18 10:08:33;;;;;;;1.85;0.70;;;12.50;99.90;;;;;;5017053;28;20423;-88
2022/05/18 10:11:13;;;;;;;1.52;0.70;;;12.70;99.90;;;;;;5017535;28;20407;-87
2022/05/18 10:13:55;;;;;;;2.92;0.88;;;12.80;99.90;;;;;;5017951;28;20413;-88
2022/05/18 10:16:48;;;;;;;2.60;0.80;;;12.80;99.90;;;;;;5018469;28;20901;-89
2022/05/18 10:19:30;;;;;;;2.88;0.90;;;12.90;99.90;;;;;;5017907;28;20403;-88
2022/05/18 10:22:02;;;;;;;2.83;1.10;;;13.00;99.90;;;;;;5016586;28;20440;-88
2022/05/18 10:25:11;;;;;;;2.15;0.80;;;13.20;99.90;;;;;;5005672;28;20834;-88
2022/05/18 10:27:44;;;;;;;4.03;0.93;;;13.20;99.90;;;;;;5004887;28;20426;-89
2022/05/18 10:30:19;;;;;;;2.55;0.80;;;13.00;99.90;;;;;;5009355;28;20494;-89
2022/05/18 10:33:15;;;;;;;2.25;0.90;;;13.10;99.90;;;;;;5001816;28;20409;-89
2022/05/18 10:35:48;;;;;;;2.30;0.80;;;13.10;99.90;;;;;;5013726;28;20412;-87
2022/05/18 10:38:31;;;;;;;4.53;1.08;;;13.20;99.90;;;;;;5007058;28;20401;-88
2022/05/18 10:41:04;;;;;;;2.80;0.80;;;13.20;99.90;;;;;;5019050;28;20398;-87
2022/05/18 10:43:34;;;;;;;2.40;0.90;;;13.20;99.90;;;;;;5015190;28;20518;-88
2022/05/18 10:46:19;;;;;;;17.40;1.77;;;13.10;99.90;;;;;;5012552;28;20415;-89
2022/05/18 10:48:58;;;;;;;2.25;0.80;;;13.20;99.90;;;;;;5038473;28;20409;-88
2022/05/18 10:51:43;;;;;;;3.00;0.73;;;13.20;99.90;;;;;;5016460;28;20405;-87
2022/05/18 10:54:26;;;;;;;3.33;0.80;;;13.30;99.90;;;;;;5006433;28;20409;-89
2022/05/18 10:57:10;;;;;;;3.30;0.80;;;13.50;99.90;;;;;;5019307;28;20484;-86
2022/05/18 10:59:49;;;;;;;1.60;0.73;;;13.50;99.90;;;;;;5008810;28;20935;-89
2022/05/18 11:02:41;;;;;;;1.58;0.68;;;13.50;99.90;;;;;;5011585;28;20471;-86
2022/05/18 11:05:17;;;;;;;1.50;0.90;;;13.50;99.90;;;;;;5009940;28;20389;-88
2022/05/18 11:07:45;;;;;;;2.80;0.80;;;13.30;99.90;;;;;;5013334;28;20757;-88
2022/05/18 11:10:13;;;;;;;3.60;0.70;;;13.60;99.90;;;;;;5016704;28;20446;-87
2022/05/18 11:13:09;;;;;;;2.72;0.80;;;13.70;99.90;;;;;;5008824;28;20496;-87
2022/05/18 11:16:23;;;;;;;2.83;0.80;;;13.50;99.90;;;;;;5014539;28;20476;-88
2022/05/18 11:19:18;;;;;;;2.63;0.82;;;13.50;99.90;;;;;;5016193;28;20454;-87
2022/05/18 11:22:04;;;;;;;3.85;0.80;;;13.50;99.90;;;;;;5014893;28;20409;-88
2022/05/18 11:25:02;;;;;;;2.58;0.70;;;13.70;99.90;;;;;;5003942;28;20403;-89
2022/05/18 11:27:58;;;;;;;1.90;0.73;;;13.80;99.90;;;;;;5017788;28;20413;-88
2022/05/18 11:30:51;;;;;;;2.70;0.68;;;13.90;99.90;;;;;;5014776;28;20492;-88
2022/05/18 11:33:47;;;;;;;1.92;0.60;;;14.00;99.90;;;;;;5015087;28;20407;-89
2022/05/18 11:36:33;;;;;;;1.98;0.68;;;14.10;99.90;;;;;;5021838;27;20439;-88
2022/05/18 11:39:04;;;;;;;1.88;0.60;;;14.10;99.90;;;;;;5010371;28;20399;-88
2022/05/18 11:41:47;;;;;;;2.33;0.60;;;13.90;99.90;;;;;;5008916;28;20438;-88
2022/05/18 11:44:39;;;;;;;11.27;1.40;;;14.00;99.90;;;;;;4999226;28;20496;-86
2022/05/18 11:47:06;;;;;;;3.95;0.70;;;14.10;99.90;;;;;;5006352;28;20482;-88
2022/05/18 11:49:40;;;;;;;3.37;0.73;;;14.10;99.90;;;;;;5032285;28;20454;-86
2022/05/18 11:52:32;;;;;;;3.10;0.60;;;14.20;99.90;;;;;;5034107;28;20478;-87
2022/05/18 11:55:32;;;;;;;2.35;0.70;;;14.20;99.90;;;;;;5020327;28;20544;-87
2022/05/18 11:58:24;;;;;;;2.50;0.65;;;14.30;99.90;;;;;;5010363;28;20450;-88
2022/05/18 12:01:10;;;;;;;2.08;0.60;;;14.40;99.90;;;;;;5006518;28;20407;-87
2022/05/18 12:04:08;;;;;;;3.20;0.60;;;14.50;99.90;;;;;;4999033;28;20412;-88
2022/05/18 12:07:02;;;;;;;1.77;0.82;;;14.40;99.90;;;;;;5000022;28;20926;-88
2022/05/18 12:10:07;;;;;;;2.43;0.70;;;14.60;99.90;;;;;;4997720;28;20404;-89
2022/05/18 12:12:42;;;;;;;1.00;0.60;;;14.60;99.90;;;;;;4994777;28;20445;-88
2022/05/18 12:15:19;;;;;;;1.70;0.57;;;14.60;99.90;;;;;;4998871;28;20476;-88
2022/05/18 12:18:01;;;;;;;2.00;0.70;;;14.70;99.90;;;;;;5005578;28;20444;-88
2022/05/18 12:20:36;;;;;;;1.67;0.80;;;14.60;99.90;;;;;;5011116;28;20405;-88
2022/05/18 12:23:09;;;;;;;2.88;1.00;;;14.50;99.90;;;;;;5005688;28;21083;-88
2022/05/18 12:25:38;;;;;;;2.78;0.95;;;14.50;99.90;;;;;;4997889;28;20891;-88
2022/05/18 12:28:09;;;;;;;6.43;1.00;;;14.40;99.90;;;;;;5001326;28;20406;-88
2022/05/18 12:30:40;;;;;;;6.17;1.27;;;14.70;99.90;;;;;;5004485;28;20398;-88
2022/05/18 12:33:11;;;;;;;2.85;0.73;;;14.90;99.90;;;;;;5021270;28;20482;-88
2022/05/18 12:36:03;;;;;;;2.55;0.70;;;15.10;99.90;;;;;;5021405;28;20409;-88
2022/05/18 12:39:09;;;;;;;2.80;0.93;;;15.10;99.90;;;;;;5012566;28;20823;-88
2022/05/18 12:41:42;;;;;;;1.75;0.90;;;15.10;99.90;;;;;;5017641;28;20392;-88
2022/05/18 12:44:13;;;;;;;3.63;0.90;;;15.10;99.90;;;;;;5017576;28;20390;-89
2022/05/18 12:46:54;;;;;;;3.50;0.90;;;15.10;99.90;;;;;;5045174;28;20486;-88
2022/05/18 12:49:39;;;;;;;1.63;0.70;;;15.10;99.90;;;;;;5019394;28;20492;-89
2022/05/18 12:52:25;;;;;;;7.88;1.02;;;15.10;99.90;;;;;;5008395;28;20401;-89
2022/05/18 12:54:55;;;;;;;18.15;2.70;;;15.30;99.90;;;;;;5012835;28;20887;-88
2022/05/18 12:57:41;;;;;;;6.93;1.00;;;15.40;99.90;;;;;;5023401;28;20409;-88
2022/05/18 13:00:21;;;;;;;3.20;0.90;;;15.50;99.90;;;;;;5012331;28;20940;-88
2022/05/18 13:03:00;;;;;;;5.13;1.30;;;15.40;99.90;;;;;;5019857;28;20405;-87
2022/05/18 13:05:50;;;;;;;2.25;0.70;;;15.40;99.90;;;;;;5018944;28;20408;-89
2022/05/18 13:08:18;;;;;;;2.78;0.82;;;15.40;99.90;;;;;;5014858;28;20437;-89
2022/05/18 13:11:20;;;;;;;4.40;0.90;;;15.60;99.90;;;;;;5019818;28;20417;-88
2022/05/18 13:14:04;;;;;;;6.25;1.70;;;15.40;99.90;;;;;;5038554;28;20428;-86
2022/05/18 13:16:38;;;;;;;5.10;1.27;;;15.50;99.90;;;;;;5024308;28;20439;-84
2022/05/18 13:19:13;;;;;;;4.22;1.10;;;15.60;99.90;;;;;;5029865;28;20401;-83
2022/05/18 13:21:50;;;;;;;1.20;0.80;;;15.80;99.90;;;;;;5025780;28;20398;-83
2022/05/18 13:24:45;;;;;;;2.90;0.90;;;15.80;99.90;;;;;;5022343;28;20805;-83
2022/05/18 13:27:20;;;;;;;4.50;0.82;;;15.80;99.90;;;;;;5027657;28;20401;-82
2022/05/18 13:29:53;;;;;;;5.07;1.05;;;15.90;99.90;;;;;;5024944;28;20547;-84
2022/05/18 13:32:23;;;;;;;10.63;1.50;;;16.00;99.90;;;;;;5033948;28;20406;-82
2022/05/18 13:35:30;;;;;;;5.07;1.00;;;16.10;99.90;;;;;;5032005;28;20413;-83
2022/05/18 13:38:09;;;;;;;5.80;1.00;;;16.10;99.90;;;;;;5076970;28;20420;-83
2022/05/18 13:40:42;;;;;;;2.60;0.82;;;16.00;99.90;;;;;;5067871;28;20401;-83
2022/05/18 13:43:15;;;;;;;4.15;1.00;;;15.80;99.90;;;;;;5046842;28;20433;-83
2022/05/18 13:45:47;;;;;;;2.95;0.88;;;15.70;99.90;;;;;;5029830;28;20472;-84